createdAt,value
2019-05-06T00:02:16.827Z,65.54
2019-05-06T00:04:46.622Z,65.41
2019-05-06T00:07:16.336Z,64.86
2019-05-06T00:09:45.917Z,64.71
2019-05-06T00:12:15.663Z,65.29
2019-05-06T00:14:45.410Z,66.33
2019-05-06T00:17:15.672Z,66.11
2019-05-06T00:19:45.410Z,67.07
2019-05-06T00:22:15.183Z,66.63
2019-05-06T00:24:46.733Z,67.48
2019-05-06T00:27:24.706Z,67.90
2019-05-06T00:29:54.949Z,67.33
2019-05-06T00:32:24.935Z,67.06
2019-05-06T00:34:54.779Z,66.31
2019-05-06T00:37:24.457Z,66.98
2019-05-06T00:39:55.585Z,66.75
2019-05-06T00:42:27.491Z,66.68
2019-05-06T00:44:57.556Z,66.68
2019-05-06T00:47:27.185Z,66.54
2019-05-06T00:49:56.856Z,66.76
2019-05-06T00:52:29.180Z,67.70
2019-05-06T00:54:58.703Z,67.45
2019-05-06T00:57:29.860Z,66.97
2019-05-06T00:59:59.505Z,66.25
2019-05-06T01:02:29.008Z,66.06
2019-05-06T01:05:01.730Z,65.79
2019-05-06T01:07:34.468Z,67.11
2019-05-06T01:10:03.764Z,66.34
2019-05-06T01:12:34.617Z,66.40
2019-05-06T01:15:14.251Z,66.74
2019-05-06T01:17:44.424Z,66.52
2019-05-06T01:20:15.271Z,66.92
2019-05-06T01:22:45.058Z,66.98
2019-05-06T01:25:15.724Z,67.13
2019-05-06T01:27:45.385Z,68.32
2019-05-06T01:30:16.182Z,67.92
2019-05-06T01:32:45.831Z,68.64
2019-05-06T01:35:15.575Z,68.57
2019-05-06T01:37:46.823Z,68.29
2019-05-06T01:40:20.752Z,69.96
2019-05-06T01:42:57.944Z,69.06
2019-05-06T01:45:27.635Z,69.03
2019-05-06T01:47:57.305Z,68.75
2019-05-06T01:50:27.252Z,68.56
2019-05-06T01:52:56.877Z,68.43
2019-05-06T01:55:26.367Z,68.62
2019-05-06T01:57:56.056Z,68.76
2019-05-06T02:00:25.719Z,68.64
2019-05-06T02:02:55.451Z,69.17
2019-05-06T02:05:25.085Z,69.70
2019-05-06T02:07:55.107Z,69.88
2019-05-06T02:10:25.015Z,69.88
2019-05-06T02:12:54.781Z,70.01
2019-05-06T02:15:24.442Z,69.83
2019-05-06T02:17:55.124Z,70.44
2019-05-06T02:20:25.031Z,70.52
2019-05-06T02:22:56.228Z,70.96
2019-05-06T02:25:27.518Z,71.10
2019-05-06T02:27:57.369Z,71.53
2019-05-06T02:30:36.567Z,71.35
2019-05-06T02:33:07.066Z,71.05
2019-05-06T02:35:38.305Z,70.79
2019-05-06T02:38:09.652Z,70.87
2019-05-06T02:40:39.408Z,70.64
2019-05-06T02:43:09.461Z,70.95
2019-05-06T02:45:39.024Z,71.04
2019-05-06T02:48:19.310Z,71.38
2019-05-06T02:50:49.041Z,71.40
2019-05-06T02:53:23.614Z,72.22
2019-05-06T02:55:53.228Z,72.65
2019-05-06T02:58:23.850Z,72.23
2019-05-06T03:00:54.174Z,71.31
2019-05-06T03:03:26.041Z,70.74
2019-05-06T03:05:55.640Z,71.37
2019-05-06T03:08:25.227Z,72.10
2019-05-06T03:10:54.960Z,72.36
2019-05-06T03:13:24.630Z,72.04
2019-05-06T03:15:54.588Z,71.16
2019-05-06T03:18:24.313Z,71.36
2019-05-06T03:20:55.608Z,71.69
2019-05-06T03:23:34.867Z,72.68
2019-05-06T03:26:06.409Z,72.12
2019-05-06T03:28:34.996Z,71.81
2019-05-06T03:31:06.600Z,72.27
2019-05-06T03:33:55.056Z,72.00
2019-05-06T03:36:18.734Z,72.16
2019-05-06T03:38:42.810Z,73.00
2019-05-06T03:41:13.658Z,72.19
2019-05-06T03:43:43.383Z,72.33
2019-05-06T03:46:18.038Z,73.16
2019-05-06T03:48:52.893Z,73.04
2019-05-06T03:51:23.337Z,72.18
2019-05-06T03:53:56.809Z,72.80
2019-05-06T03:56:29.017Z,73.12
2019-05-06T03:59:02.657Z,73.72
2019-05-06T04:01:33.541Z,73.09
2019-05-06T04:04:03.552Z,72.77
2019-05-06T04:06:33.692Z,72.76
2019-05-06T04:09:08.567Z,73.03
2019-05-06T04:11:43.052Z,72.00
2019-05-06T04:14:13.925Z,72.24
2019-05-06T04:16:48.230Z,72.01
2019-05-06T04:19:19.762Z,71.67
2019-05-06T04:21:54.192Z,71.42
2019-05-06T04:24:28.910Z,72.11
2019-05-06T04:27:48.572Z,72.45
2019-05-06T04:30:19.782Z,71.88
2019-05-06T04:32:52.873Z,72.23
2019-05-06T04:35:22.967Z,71.50
2019-05-06T04:37:53.941Z,71.06
2019-05-06T04:40:24.152Z,70.87
2019-05-06T04:42:53.994Z,70.11
2019-05-06T04:45:25.603Z,70.52
2019-05-06T04:47:55.466Z,70.26
2019-05-06T04:50:25.123Z,72.25
2019-05-06T04:52:56.481Z,71.59
2019-05-06T04:55:26.137Z,70.74
2019-05-06T04:57:55.836Z,71.12
2019-05-06T05:00:28.162Z,70.29
2019-05-06T05:02:57.811Z,70.48
2019-05-06T05:05:27.533Z,70.08
2019-05-06T05:07:57.381Z,69.42
2019-05-06T05:10:28.834Z,68.78
2019-05-06T05:13:18.914Z,68.96
2019-05-06T05:16:02.431Z,68.06
2019-05-06T05:18:33.906Z,67.83
2019-05-06T05:21:04.254Z,67.80
2019-05-06T05:23:34.028Z,66.83
2019-05-06T05:26:03.886Z,66.64
2019-05-06T05:28:33.599Z,66.79
2019-05-06T05:31:03.253Z,66.53
2019-05-06T05:33:33.732Z,66.33
2019-05-06T05:36:03.665Z,66.92
2019-05-06T05:38:33.854Z,67.21
2019-05-06T05:41:03.568Z,67.44
2019-05-06T05:43:39.879Z,66.75
2019-05-06T05:46:12.594Z,65.84
2019-05-06T05:48:51.849Z,66.55
2019-05-06T05:51:22.233Z,65.41
2019-05-06T05:53:52.443Z,65.29
2019-05-06T05:56:24.025Z,64.08
2019-05-06T05:58:53.842Z,63.78
2019-05-06T06:01:25.361Z,63.67
2019-05-06T06:03:55.387Z,63.05
2019-05-06T06:06:25.115Z,62.92
2019-05-06T06:08:54.762Z,62.81
2019-05-06T06:11:42.084Z,61.86
2019-05-06T06:14:13.831Z,62.35
2019-05-06T06:16:45.052Z,63.33
2019-05-06T06:19:28.425Z,62.84
2019-05-06T06:22:00.269Z,63.15
2019-05-06T06:24:32.706Z,62.45
2019-05-06T06:27:03.167Z,62.21
2019-05-06T06:29:33.377Z,61.54
2019-05-06T06:32:23.208Z,61.42
2019-05-06T06:35:06.642Z,60.53
2019-05-06T06:37:28.675Z,61.54
2019-05-06T06:40:02.497Z,60.28
2019-05-06T06:42:33.532Z,60.44
2019-05-06T06:45:03.822Z,59.17
2019-05-06T06:47:33.424Z,58.76
2019-05-06T06:50:03.423Z,58.50
2019-05-06T06:52:33.549Z,57.10
2019-05-06T06:55:03.982Z,57.29
2019-05-06T06:57:35.163Z,56.78
2019-05-06T07:00:23.658Z,56.30
2019-05-06T07:02:56.132Z,55.83
2019-05-06T07:05:35.917Z,55.39
2019-05-06T07:08:05.643Z,55.46
2019-05-06T07:10:43.921Z,56.24
2019-05-06T07:13:16.385Z,55.63
2019-05-06T07:15:46.316Z,54.70
2019-05-06T07:18:16.002Z,54.02
2019-05-06T07:20:45.434Z,52.34
2019-05-06T07:23:26.041Z,51.81
2019-05-06T07:25:56.170Z,50.63
2019-05-06T07:28:26.111Z,49.78
2019-05-06T07:31:13.846Z,48.68
2019-05-06T07:33:28.925Z,49.38
2019-05-06T07:35:58.942Z,48.68
2019-05-06T07:38:28.558Z,49.33
2019-05-06T07:41:04.515Z,50.23
2019-05-06T07:43:42.051Z,49.82
2019-05-06T07:46:23.509Z,50.37
2019-05-06T07:48:53.860Z,51.06
2019-05-06T07:51:23.898Z,50.73
2019-05-06T07:53:53.792Z,50.80
2019-05-06T07:56:23.438Z,50.38
2019-05-06T07:58:54.746Z,50.56
2019-05-06T08:01:26.151Z,49.97
2019-05-06T08:03:59.441Z,48.94
2019-05-06T08:06:29.161Z,48.97
2019-05-06T08:08:58.898Z,49.25
2019-05-06T08:11:28.757Z,48.48
2019-05-06T08:13:58.458Z,49.30
2019-05-06T08:16:31.825Z,48.97
2019-05-06T08:19:02.737Z,49.03
2019-05-06T08:21:39.672Z,48.93
2019-05-06T08:24:09.525Z,48.53
2019-05-06T08:26:39.607Z,47.55
2019-05-06T08:29:11.656Z,47.50
2019-05-06T08:31:43.066Z,46.81
2019-05-06T08:34:12.593Z,47.84
2019-05-06T08:36:42.758Z,48.75
2019-05-06T08:39:14.648Z,49.11
2019-05-06T08:41:44.363Z,47.79
2019-05-06T08:44:14.205Z,47.18
2019-05-06T08:46:44.171Z,46.27
2019-05-06T08:49:14.016Z,45.65
2019-05-06T08:51:48.821Z,43.55
2019-05-06T08:54:22.777Z,43.52
2019-05-06T08:56:52.470Z,44.54
2019-05-06T08:59:24.040Z,44.30
2019-05-06T09:01:55.207Z,42.87
2019-05-06T09:04:24.863Z,43.93
2019-05-06T09:06:54.665Z,44.85
2019-05-06T09:09:25.307Z,44.41
2019-05-06T09:11:58.168Z,44.50
2019-05-06T09:14:27.882Z,43.72
2019-05-06T09:16:57.608Z,43.68
2019-05-06T09:19:27.257Z,44.07
2019-05-06T09:21:57.204Z,43.81
2019-05-06T09:24:26.971Z,43.02
2019-05-06T09:27:12.292Z,42.80
2019-05-06T09:29:43.641Z,42.08
2019-05-06T09:32:14.846Z,42.51
2019-05-06T09:34:46.009Z,43.40
2019-05-06T09:37:17.193Z,44.60
2019-05-06T09:39:47.749Z,45.20
2019-05-06T09:42:18.107Z,45.28
2019-05-06T09:44:50.613Z,45.11
2019-05-06T09:47:25.637Z,44.93
2019-05-06T09:49:55.267Z,44.59
2019-05-06T09:52:24.800Z,44.94
2019-05-06T09:54:56.091Z,44.68
2019-05-06T09:57:27.363Z,43.39
2019-05-06T09:59:56.946Z,43.14
2019-05-06T10:02:26.684Z,42.17
2019-05-06T10:04:57.121Z,41.63
2019-05-06T10:07:26.771Z,41.87
2019-05-06T10:09:56.437Z,40.92
2019-05-06T10:12:26.086Z,38.36
2019-05-06T10:14:55.659Z,37.68
2019-05-06T10:17:25.293Z,38.58
2019-05-06T10:19:56.373Z,38.77
2019-05-06T10:22:25.939Z,40.12
2019-05-06T10:24:55.479Z,41.01
2019-05-06T10:27:25.256Z,41.52
2019-05-06T10:30:07.874Z,41.46
2019-05-06T10:32:39.053Z,41.66
2019-05-06T10:35:12.964Z,43.74
2019-05-06T10:37:49.675Z,46.98
2019-05-06T10:40:26.624Z,50.07
2019-05-06T10:43:33.702Z,49.96
2019-05-06T10:46:04.079Z,50.33
2019-05-06T10:48:33.911Z,52.32
2019-05-06T10:51:16.837Z,52.58
2019-05-06T10:53:45.036Z,55.42
2019-05-06T10:56:26.316Z,59.29
2019-05-06T10:58:57.660Z,59.53
2019-05-06T11:01:36.636Z,59.13
2019-05-06T11:04:06.651Z,56.41
2019-05-06T11:06:38.028Z,53.21
2019-05-06T11:09:10.593Z,52.47
2019-05-06T11:11:42.577Z,51.94
2019-05-06T11:14:12.699Z,51.92
2019-05-06T11:16:42.937Z,51.28
2019-05-06T11:19:13.301Z,49.53
2019-05-06T11:21:45.212Z,48.83
2019-05-06T11:24:14.582Z,48.08
2019-05-06T11:26:44.090Z,47.47
2019-05-06T11:29:20.832Z,47.37
2019-05-06T11:31:54.479Z,46.42
2019-05-06T11:34:32.619Z,46.94
2019-05-06T11:37:03.984Z,47.69
2019-05-06T11:39:33.495Z,52.04
2019-05-06T11:42:23.767Z,56.28
2019-05-06T11:44:34.352Z,58.39
2019-05-06T11:47:04.087Z,61.26
2019-05-06T11:49:34.079Z,62.56
2019-05-06T11:52:03.642Z,63.14
2019-05-06T11:54:33.860Z,63.19
2019-05-06T11:57:05.352Z,61.32
2019-05-06T11:59:35.018Z,63.68
2019-05-06T12:02:06.401Z,61.49
2019-05-06T12:04:37.230Z,62.95
2019-05-06T12:07:11.288Z,62.67
2019-05-06T12:09:38.208Z,62.28
2019-05-06T12:12:07.843Z,63.59
2019-05-06T12:14:37.370Z,64.97
2019-05-06T12:17:06.888Z,65.03
2019-05-06T12:19:36.441Z,64.02
2019-05-06T12:22:06.409Z,62.39
2019-05-06T12:24:35.960Z,62.80
2019-05-06T12:27:05.814Z,60.11
2019-05-06T12:29:38.227Z,60.21
2019-05-06T12:32:14.426Z,59.57
2019-05-06T12:34:44.018Z,57.92
2019-05-06T12:37:15.246Z,57.97
2019-05-06T12:39:48.052Z,56.80
2019-05-06T12:42:19.629Z,56.18
2019-05-06T12:44:52.946Z,54.81
2019-05-06T12:47:27.213Z,53.49
2019-05-06T12:49:56.842Z,52.54
2019-05-06T12:52:26.517Z,52.73
2019-05-06T12:55:13.691Z,55.04
2019-05-06T12:57:27.435Z,55.81
2019-05-06T12:59:57.074Z,56.46
2019-05-06T13:02:26.750Z,57.24
2019-05-06T13:05:00.686Z,58.06
2019-05-06T13:07:29.332Z,59.58
2019-05-06T13:09:59.449Z,59.63
2019-05-06T13:12:33.490Z,59.50
2019-05-06T13:15:03.837Z,60.68
2019-05-06T13:17:33.408Z,59.48
2019-05-06T13:20:03.104Z,58.18
2019-05-06T13:22:40.043Z,55.83
2019-05-06T13:25:13.345Z,57.00
2019-05-06T13:27:42.788Z,55.53
2019-05-06T13:30:14.506Z,55.88
2019-05-06T13:32:45.754Z,57.12
2019-05-06T13:35:15.768Z,56.90
2019-05-06T13:37:45.495Z,54.97
2019-05-06T13:40:15.394Z,55.47
2019-05-06T13:42:46.840Z,54.97
2019-05-06T13:45:17.176Z,55.63
2019-05-06T13:47:46.462Z,56.17
2019-05-06T13:50:24.976Z,55.59
2019-05-06T13:53:08.085Z,56.37
2019-05-06T13:55:27.685Z,56.59
2019-05-06T13:57:57.290Z,56.30
2019-05-06T14:00:27.030Z,56.95
2019-05-06T14:02:58.413Z,56.55
2019-05-06T14:05:30.106Z,56.59
2019-05-06T14:08:02.550Z,56.18
2019-05-06T14:10:32.782Z,53.29
2019-05-06T14:13:02.825Z,53.60
2019-05-06T14:15:32.629Z,53.24
2019-05-06T14:18:02.998Z,52.28
2019-05-06T14:20:34.004Z,50.16
2019-05-06T14:23:03.602Z,49.71
2019-05-06T14:25:43.570Z,50.09
2019-05-06T14:28:20.661Z,49.86
2019-05-06T14:30:54.267Z,50.29
2019-05-06T14:33:23.868Z,50.63
2019-05-06T14:35:53.550Z,50.28
2019-05-06T14:38:27.210Z,49.83
2019-05-06T14:41:07.900Z,50.75
2019-05-06T14:43:38.443Z,51.50
2019-05-06T14:46:08.192Z,52.40
2019-05-06T14:48:37.766Z,52.84
2019-05-06T14:51:07.543Z,53.44
2019-05-06T14:53:37.113Z,53.86
2019-05-06T14:56:12.917Z,55.23
2019-05-06T14:58:43.952Z,56.48
2019-05-06T15:01:13.809Z,56.38
2019-05-06T15:03:43.292Z,56.74
2019-05-06T15:06:13.116Z,57.84
2019-05-06T15:08:43.323Z,58.73
2019-05-06T15:11:12.853Z,58.41
2019-05-06T15:13:42.800Z,58.16
2019-05-06T15:16:13.204Z,57.78
2019-05-06T15:18:42.810Z,58.33
2019-05-06T15:21:33.823Z,58.76
2019-05-06T15:23:44.866Z,60.03
2019-05-06T15:26:14.368Z,59.40
2019-05-06T15:28:43.913Z,61.93
2019-05-06T15:31:19.474Z,64.42
2019-05-06T15:33:53.677Z,63.93
2019-05-06T15:36:24.847Z,65.17
2019-05-06T15:38:54.463Z,64.15
2019-05-06T15:41:25.561Z,65.92
2019-05-06T15:43:55.083Z,64.07
2019-05-06T15:46:24.601Z,65.32
2019-05-06T15:48:54.167Z,65.35
2019-05-06T15:51:25.328Z,65.73
2019-05-06T15:53:54.872Z,65.66
2019-05-06T15:56:24.467Z,65.81
2019-05-06T15:58:54.076Z,65.37
2019-05-06T16:01:23.632Z,65.00
2019-05-06T16:03:54.519Z,64.61
2019-05-06T16:06:24.107Z,64.52
2019-05-06T16:08:54.218Z,63.77
2019-05-06T16:11:23.927Z,63.21
2019-05-06T16:13:53.548Z,65.64
2019-05-06T16:16:23.224Z,64.54
2019-05-06T16:19:13.473Z,64.81
2019-05-06T16:21:45.267Z,64.25
2019-05-06T16:24:28.102Z,62.94
2019-05-06T16:26:57.636Z,62.82
2019-05-06T16:29:35.615Z,64.12
2019-05-06T16:32:07.551Z,64.77
2019-05-06T16:34:37.258Z,64.38
2019-05-06T16:37:07.521Z,63.50
2019-05-06T16:39:37.084Z,64.87
2019-05-06T16:42:07.505Z,65.68
2019-05-06T16:44:40.464Z,66.17
2019-05-06T16:47:11.796Z,66.34
2019-05-06T16:49:42.290Z,66.56
2019-05-06T16:52:13.069Z,68.51
2019-05-06T16:54:42.718Z,69.18
2019-05-06T16:57:13.949Z,69.55
2019-05-06T16:59:43.739Z,69.66
2019-05-06T17:02:14.959Z,70.01
2019-05-06T17:04:46.129Z,69.89
2019-05-06T17:07:16.346Z,69.57
2019-05-06T17:09:45.971Z,68.69
2019-05-06T17:12:15.489Z,69.00
2019-05-06T17:14:45.111Z,68.62
2019-05-06T17:17:14.897Z,68.02
2019-05-06T17:19:44.434Z,68.02
2019-05-06T17:22:14.570Z,68.35
2019-05-06T17:24:44.102Z,67.65
2019-05-06T17:27:13.690Z,69.30
2019-05-06T17:29:47.803Z,69.85
2019-05-06T17:32:28.325Z,70.15
2019-05-06T17:35:02.420Z,70.95
2019-05-06T17:37:48.227Z,70.77
2019-05-06T17:40:20.051Z,70.20
2019-05-06T17:42:53.284Z,71.35
2019-05-06T17:45:40.391Z,70.99
2019-05-06T17:48:17.108Z,72.22
2019-05-06T17:50:48.278Z,73.88
2019-05-06T17:53:17.887Z,74.51
2019-05-06T17:55:47.597Z,74.03
2019-05-06T17:58:17.653Z,74.31
2019-05-06T18:00:47.305Z,73.62
2019-05-06T18:03:16.962Z,73.38
2019-05-06T18:05:47.621Z,72.57
2019-05-06T18:08:17.204Z,74.36
2019-05-06T18:10:46.773Z,73.62
2019-05-06T18:13:16.496Z,72.71
2019-05-06T18:15:46.023Z,73.43
2019-05-06T18:18:15.704Z,72.95
2019-05-06T18:20:45.236Z,73.35
2019-05-06T18:23:14.890Z,75.12
2019-05-06T18:25:44.455Z,75.16
2019-05-06T18:28:14.418Z,73.99
2019-05-06T18:30:43.955Z,73.48
2019-05-06T18:33:13.462Z,73.90
2019-05-06T18:35:44.790Z,74.09
2019-05-06T18:38:14.353Z,75.08
2019-05-06T18:40:44.166Z,74.41
2019-05-06T18:43:14.289Z,74.11
2019-05-06T18:45:44.025Z,74.09
2019-05-06T18:48:13.781Z,73.13
2019-05-06T18:50:43.525Z,72.96
2019-05-06T18:53:13.418Z,73.77
2019-05-06T18:55:43.239Z,73.79
2019-05-06T18:58:13.022Z,73.56
2019-05-06T19:00:43.966Z,72.28
2019-05-06T19:03:14.663Z,72.54
2019-05-06T19:05:49.710Z,72.19
2019-05-06T19:08:37.138Z,72.67
2019-05-06T19:11:08.476Z,72.95
2019-05-06T19:13:37.964Z,73.19
2019-05-06T19:16:07.642Z,72.84
2019-05-06T19:18:38.679Z,73.41
2019-05-06T19:21:08.432Z,72.88
2019-05-06T19:23:37.969Z,72.68
2019-05-06T19:26:07.698Z,72.69
2019-05-06T19:28:37.379Z,72.76
2019-05-06T19:31:06.960Z,72.36
2019-05-06T19:33:38.341Z,71.83
2019-05-06T19:36:08.056Z,71.86
2019-05-06T19:38:37.631Z,72.24
2019-05-06T19:41:07.408Z,72.27
2019-05-06T19:43:37.256Z,72.35
2019-05-06T19:46:06.956Z,72.70
2019-05-06T19:48:36.573Z,72.43
2019-05-06T19:51:06.149Z,71.85
2019-05-06T19:53:35.801Z,72.12
2019-05-06T19:56:05.469Z,72.11
2019-05-06T19:58:35.025Z,72.13
2019-05-06T20:01:05.706Z,72.21
2019-05-06T20:03:35.794Z,72.36
2019-05-06T20:06:23.784Z,72.26
2019-05-06T20:08:55.182Z,72.71
2019-05-06T20:11:26.537Z,73.06
2019-05-06T20:13:56.137Z,72.56
2019-05-06T20:16:25.931Z,71.47
2019-05-06T20:18:55.437Z,71.58
2019-05-06T20:21:25.175Z,71.05
2019-05-06T20:23:54.816Z,71.48
2019-05-06T20:26:24.385Z,72.43
2019-05-06T20:28:57.242Z,72.53
2019-05-06T20:31:28.651Z,72.19
2019-05-06T20:33:58.298Z,72.05
2019-05-06T20:36:33.194Z,72.15
2019-05-06T20:39:04.327Z,73.37
2019-05-06T20:41:34.151Z,73.16
2019-05-06T20:44:06.376Z,72.17
2019-05-06T20:46:42.980Z,71.33
2019-05-06T20:49:15.848Z,70.56
2019-05-06T20:51:45.978Z,71.22
2019-05-06T20:54:15.513Z,71.41
2019-05-06T20:56:45.231Z,70.63
2019-05-06T20:59:15.144Z,70.37
2019-05-06T21:01:45.081Z,69.60
2019-05-06T21:04:14.629Z,69.06
2019-05-06T21:06:46.243Z,70.88
2019-05-06T21:09:15.765Z,70.88
2019-05-06T21:11:45.284Z,69.66
2019-05-06T21:14:14.967Z,69.92
2019-05-06T21:16:47.698Z,69.18
2019-05-06T21:19:16.000Z,70.44
2019-05-06T21:21:45.645Z,70.00
2019-05-06T21:24:15.293Z,69.49
2019-05-06T21:26:46.427Z,68.75
2019-05-06T21:29:16.238Z,69.11
2019-05-06T21:31:45.931Z,69.13
2019-05-06T21:34:15.897Z,69.58
2019-05-06T21:36:45.494Z,69.54
2019-05-06T21:39:15.260Z,69.21
2019-05-06T21:41:44.940Z,69.17
2019-05-06T21:44:14.567Z,69.23
2019-05-06T21:46:44.256Z,69.05
2019-05-06T21:49:14.358Z,69.64
2019-05-06T21:51:44.479Z,69.74
2019-05-06T21:54:14.138Z,69.64
2019-05-06T21:56:44.096Z,71.34
2019-05-06T21:59:13.768Z,72.14
2019-05-06T22:01:43.422Z,72.18
2019-05-06T22:04:13.160Z,71.61
2019-05-06T22:06:45.604Z,72.16
2019-05-06T22:09:14.390Z,72.63
2019-05-06T22:11:43.984Z,72.93
2019-05-06T22:14:13.713Z,72.47
2019-05-06T22:16:43.823Z,72.23
2019-05-06T22:19:13.735Z,72.83
2019-05-06T22:21:54.155Z,72.90
2019-05-06T22:24:29.629Z,73.68
2019-05-06T22:26:59.358Z,73.39
2019-05-06T22:29:32.985Z,73.54
2019-05-06T22:32:02.816Z,74.01
2019-05-06T22:34:33.005Z,73.54
2019-05-06T22:37:03.304Z,73.73
2019-05-06T22:39:34.267Z,73.04
2019-05-06T22:42:03.814Z,73.08
2019-05-06T22:44:35.485Z,73.33
2019-05-06T22:47:05.281Z,73.45
2019-05-06T22:49:34.832Z,73.38
2019-05-06T22:52:04.873Z,74.14
2019-05-06T22:54:34.655Z,75.19
2019-05-06T22:57:04.239Z,75.05
2019-05-06T22:59:33.825Z,74.33
2019-05-06T23:02:13.917Z,73.71
2019-05-06T23:04:45.162Z,73.87
2019-05-06T23:07:14.732Z,74.24
2019-05-06T23:09:44.362Z,75.05
2019-05-06T23:12:14.586Z,75.38
2019-05-06T23:14:44.125Z,75.90
2019-05-06T23:17:13.753Z,76.14
2019-05-06T23:19:43.378Z,76.55
2019-05-06T23:22:13.023Z,76.55
2019-05-06T23:24:42.668Z,75.70
2019-05-06T23:27:12.747Z,75.46
2019-05-06T23:29:44.972Z,75.52
2019-05-06T23:32:14.117Z,75.29
2019-05-06T23:34:43.653Z,75.93
2019-05-06T23:37:18.751Z,76.18
2019-05-06T23:40:43.094Z,76.46
2019-05-06T23:44:06.968Z,76.39
2019-05-06T23:47:32.353Z,77.78
2019-05-06T23:50:57.793Z,77.56
2019-05-06T23:54:23.527Z,77.95
2019-05-06T23:56:52.192Z,78.33
2019-05-06T23:59:22.561Z,78.80
